createdAt,value
2023-04-19T00:01:50.726Z,10.30
2023-04-19T00:03:52.531Z,9.40
2023-04-19T00:05:54.391Z,9.83
2023-04-19T00:07:55.993Z,10.17
2023-04-19T00:09:57.560Z,10.00
2023-04-19T00:12:00.768Z,9.60
2023-04-19T00:14:02.446Z,9.77
2023-04-19T00:16:06.573Z,13.03
2023-04-19T00:18:08.204Z,8.30
2023-04-19T00:20:10.944Z,8.90
2023-04-19T00:22:12.450Z,9.88
2023-04-19T00:24:14.234Z,10.52
2023-04-19T00:26:15.971Z,9.67
2023-04-19T00:28:17.544Z,9.73
2023-04-19T00:30:19.504Z,9.43
2023-04-19T00:32:22.675Z,8.93
2023-04-19T00:34:24.405Z,9.17
2023-04-19T00:36:25.979Z,10.40
2023-04-19T00:38:27.560Z,8.57
2023-04-19T00:40:29.247Z,8.80
2023-04-19T00:42:30.927Z,9.60
2023-04-19T00:44:32.579Z,9.57
2023-04-19T00:46:34.590Z,9.30
2023-04-19T00:48:37.696Z,9.53
2023-04-19T00:50:39.497Z,8.70
2023-04-19T00:52:41.524Z,10.45
2023-04-19T00:54:45.158Z,10.57
2023-04-19T00:56:46.953Z,9.33
2023-04-19T00:58:48.947Z,9.03
2023-04-19T01:00:50.467Z,8.30
2023-04-19T01:02:52.112Z,8.73
2023-04-19T01:04:55.188Z,8.90
2023-04-19T01:06:56.766Z,9.03
2023-04-19T01:08:58.334Z,9.80
2023-04-19T01:10:59.862Z,9.10
2023-04-19T01:13:01.400Z,9.13
2023-04-19T01:15:03.221Z,9.00
2023-04-19T01:17:04.942Z,9.13
2023-04-19T01:19:06.580Z,9.80
2023-04-19T01:21:09.508Z,9.10
2023-04-19T01:23:12.337Z,9.10
2023-04-19T01:25:13.923Z,7.13
2023-04-19T01:27:15.635Z,9.30
2023-04-19T01:29:17.149Z,9.03
2023-04-19T01:31:18.700Z,9.07
2023-04-19T01:33:20.435Z,9.33
2023-04-19T01:35:22.003Z,8.43
2023-04-19T01:37:23.582Z,9.20
2023-04-19T01:39:26.955Z,8.43
2023-04-19T01:41:28.443Z,8.50
2023-04-19T01:43:30.081Z,8.97
2023-04-19T01:45:31.721Z,8.48
2023-04-19T01:47:33.248Z,9.90
2023-04-19T01:49:34.884Z,10.67
2023-04-19T01:51:37.769Z,8.17
2023-04-19T01:53:39.282Z,8.23
2023-04-19T01:55:42.571Z,8.77
2023-04-19T01:57:44.211Z,8.70
2023-04-19T01:59:45.899Z,8.90
2023-04-19T02:01:47.628Z,11.70
2023-04-19T02:03:49.268Z,8.70
2023-04-19T02:05:50.998Z,8.88
2023-04-19T02:07:52.547Z,8.13
2023-04-19T02:09:54.085Z,8.30
2023-04-19T02:11:56.986Z,8.30
2023-04-19T02:13:58.539Z,8.70
2023-04-19T02:16:00.296Z,9.73
2023-04-19T02:18:01.896Z,8.43
2023-04-19T02:20:04.241Z,8.60
2023-04-19T02:22:05.755Z,8.30
2023-04-19T02:24:09.072Z,9.37
2023-04-19T02:26:11.036Z,7.60
2023-04-19T02:28:14.069Z,8.02
2023-04-19T02:30:15.883Z,7.80
2023-04-19T02:32:17.453Z,8.40
2023-04-19T02:34:19.005Z,8.68
2023-04-19T02:36:20.603Z,8.70
2023-04-19T02:38:22.214Z,9.50
2023-04-19T02:40:24.200Z,7.90
2023-04-19T02:42:25.832Z,8.90
2023-04-19T02:44:28.847Z,8.67
2023-04-19T02:46:30.479Z,7.57
2023-04-19T02:48:32.170Z,8.07
2023-04-19T02:50:36.790Z,8.97
2023-04-19T02:52:38.443Z,8.27
2023-04-19T02:54:40.052Z,8.15
2023-04-19T02:56:41.636Z,8.75
2023-04-19T02:58:43.164Z,9.07
2023-04-19T03:00:46.092Z,8.80
2023-04-19T03:02:47.722Z,8.93
2023-04-19T03:04:49.265Z,8.90
2023-04-19T03:06:52.085Z,8.10
2023-04-19T03:08:53.651Z,9.10
2023-04-19T03:10:55.294Z,9.20
2023-04-19T03:12:56.870Z,10.37
2023-04-19T03:14:58.517Z,9.15
2023-04-19T03:17:01.622Z,9.47
2023-04-19T03:19:03.211Z,8.77
2023-04-19T03:21:04.925Z,9.98
2023-04-19T03:23:06.522Z,9.68
2023-04-19T03:25:09.060Z,9.87
2023-04-19T03:27:10.608Z,9.40
2023-04-19T03:29:13.342Z,8.37
2023-04-19T03:31:15.155Z,9.13
2023-04-19T03:33:18.067Z,10.23
2023-04-19T03:35:19.576Z,10.03
2023-04-19T03:37:21.132Z,11.27
2023-04-19T03:39:22.679Z,9.88
2023-04-19T03:41:25.605Z,14.00
2023-04-19T03:43:27.152Z,9.55
2023-04-19T03:45:30.019Z,9.73
2023-04-19T03:47:31.574Z,8.53
2023-04-19T03:49:34.431Z,10.00
2023-04-19T03:51:36.041Z,10.03
2023-04-19T03:53:37.572Z,10.30
2023-04-19T03:55:39.115Z,9.87
2023-04-19T03:57:40.746Z,10.47
2023-04-19T03:59:42.217Z,9.17
2023-04-19T04:01:43.776Z,9.07
2023-04-19T04:03:45.560Z,9.93
2023-04-19T04:05:48.792Z,8.95
2023-04-19T04:07:50.292Z,9.33
2023-04-19T04:09:51.835Z,10.43
2023-04-19T04:11:53.376Z,9.90
2023-04-19T04:13:55.951Z,9.55
2023-04-19T04:15:57.620Z,9.23
2023-04-19T04:18:00.449Z,9.87
2023-04-19T04:20:02.164Z,9.57
2023-04-19T04:22:05.121Z,10.33
2023-04-19T04:24:07.309Z,11.18
2023-04-19T04:26:08.858Z,10.53
2023-04-19T04:28:10.407Z,12.57
2023-04-19T04:30:12.442Z,10.80
2023-04-19T04:32:13.992Z,10.00
2023-04-19T04:34:15.721Z,14.30
2023-04-19T04:36:17.430Z,11.93
2023-04-19T04:38:24.544Z,12.10
2023-04-19T04:40:26.743Z,10.48
2023-04-19T04:42:28.264Z,9.77
2023-04-19T04:44:29.800Z,9.30
2023-04-19T04:46:31.356Z,11.55
2023-04-19T04:48:32.845Z,11.23
2023-04-19T04:50:34.401Z,10.40
2023-04-19T04:52:35.955Z,10.40
2023-04-19T04:54:38.831Z,11.43
2023-04-19T04:56:40.413Z,10.60
2023-04-19T04:58:42.084Z,10.90
2023-04-19T05:00:43.761Z,9.90
2023-04-19T05:02:45.516Z,9.33
2023-04-19T05:04:47.105Z,10.57
2023-04-19T05:06:48.778Z,10.70
2023-04-19T05:08:50.384Z,10.30
2023-04-19T05:10:53.349Z,14.83
2023-04-19T05:12:54.973Z,10.50
2023-04-19T05:14:56.657Z,10.05
2023-04-19T05:16:58.202Z,10.93
2023-04-19T05:18:59.799Z,11.63
2023-04-19T05:21:01.422Z,12.80
2023-04-19T05:23:02.962Z,11.43
2023-04-19T05:25:05.767Z,12.20
2023-04-19T05:27:08.733Z,11.90
2023-04-19T05:29:10.338Z,12.03
2023-04-19T05:31:12.243Z,11.82
2023-04-19T05:33:13.801Z,12.67
2023-04-19T05:35:15.590Z,10.90
2023-04-19T05:37:17.159Z,11.93
2023-04-19T05:39:18.783Z,13.03
2023-04-19T05:41:20.547Z,11.50
2023-04-19T05:43:23.492Z,12.40
2023-04-19T05:45:25.781Z,12.27
2023-04-19T05:47:27.414Z,12.60
2023-04-19T05:49:29.011Z,13.90
2023-04-19T05:51:30.539Z,12.73
2023-04-19T05:53:32.154Z,12.10
2023-04-19T05:55:33.696Z,11.90
2023-04-19T05:57:35.304Z,11.53
2023-04-19T05:59:38.333Z,12.30
2023-04-19T06:01:39.901Z,12.30
2023-04-19T06:03:41.797Z,10.90
2023-04-19T06:05:43.697Z,12.52
2023-04-19T06:07:54.472Z,12.50
2023-04-19T06:09:57.083Z,18.30
2023-04-19T06:11:58.944Z,13.35
2023-04-19T06:14:00.516Z,12.05
2023-04-19T06:16:04.243Z,13.80
2023-04-19T06:18:06.040Z,11.77
2023-04-19T06:20:08.884Z,12.10
2023-04-19T06:22:10.417Z,14.13
2023-04-19T06:24:12.199Z,10.83
2023-04-19T06:26:13.886Z,13.17
2023-04-19T06:28:15.556Z,12.83
2023-04-19T06:30:17.966Z,12.03
2023-04-19T06:32:20.914Z,12.60
2023-04-19T06:34:22.956Z,12.23
2023-04-19T06:36:24.486Z,12.20
2023-04-19T06:38:26.046Z,12.67
2023-04-19T06:40:28.143Z,12.02
2023-04-19T06:42:29.746Z,12.57
2023-04-19T06:44:31.355Z,14.10
2023-04-19T06:46:35.752Z,12.27
2023-04-19T06:48:38.653Z,12.07
2023-04-19T06:50:40.579Z,12.80
2023-04-19T06:52:42.393Z,10.87
2023-04-19T06:54:47.658Z,11.00
2023-04-19T06:56:49.981Z,22.37
2023-04-19T06:58:51.446Z,11.30
2023-04-19T07:00:53.111Z,12.30
2023-04-19T07:02:54.950Z,13.00
2023-04-19T07:04:57.972Z,12.13
2023-04-19T07:06:59.531Z,12.93
2023-04-19T07:09:01.140Z,11.93
2023-04-19T07:11:02.674Z,11.97
2023-04-19T07:13:04.452Z,12.40
2023-04-19T07:15:06.834Z,10.17
2023-04-19T07:17:08.523Z,11.03
2023-04-19T07:19:10.119Z,6.73
2023-04-19T07:21:12.951Z,11.03
2023-04-19T07:23:15.411Z,9.33
2023-04-19T07:25:17.098Z,10.67
2023-04-19T07:27:18.590Z,10.97
2023-04-19T07:29:20.221Z,11.53
2023-04-19T07:31:21.936Z,12.30
2023-04-19T07:33:25.955Z,9.87
2023-04-19T07:35:29.497Z,13.03
2023-04-19T07:37:32.793Z,11.20
2023-04-19T07:39:34.457Z,10.13
2023-04-19T07:41:36.419Z,9.63
2023-04-19T07:43:39.280Z,11.90
2023-04-19T07:45:41.517Z,10.73
2023-04-19T07:47:43.080Z,10.83
2023-04-19T07:49:44.733Z,11.57
2023-04-19T07:51:46.497Z,9.23
2023-04-19T07:53:49.427Z,10.73
2023-04-19T07:55:51.033Z,10.00
2023-04-19T07:57:52.645Z,10.00
2023-04-19T07:59:54.206Z,8.77
2023-04-19T08:01:55.911Z,9.30
2023-04-19T08:03:57.700Z,9.10
2023-04-19T08:06:00.821Z,10.07
2023-04-19T08:08:02.479Z,10.23
2023-04-19T08:10:07.264Z,11.27
2023-04-19T08:12:09.285Z,9.13
2023-04-19T08:14:22.154Z,11.77
2023-04-19T08:17:14.700Z,10.80
2023-04-19T08:18:53.912Z,10.80
2023-04-19T08:20:55.510Z,10.80
2023-04-19T08:22:59.071Z,11.47
2023-04-19T08:25:02.366Z,11.97
2023-04-19T08:27:05.387Z,10.60
2023-04-19T08:29:07.020Z,12.43
2023-04-19T08:31:09.001Z,11.33
2023-04-19T08:33:10.748Z,10.50
2023-04-19T08:35:13.334Z,9.57
2023-04-19T08:37:14.896Z,10.53
2023-04-19T08:39:29.139Z,7.97
2023-04-19T08:41:34.726Z,10.57
2023-04-19T08:43:39.920Z,11.80
2023-04-19T08:45:43.257Z,12.00
2023-04-19T08:47:58.957Z,10.40
2023-04-19T08:50:17.444Z,10.10
2023-04-19T08:52:28.056Z,10.97
2023-04-19T08:54:29.987Z,12.57
2023-04-19T08:56:35.783Z,9.50
2023-04-19T08:58:56.836Z,9.20
2023-04-19T09:01:00.836Z,13.90
2023-04-19T09:03:02.677Z,12.23
2023-04-19T09:05:05.485Z,13.33
2023-04-19T09:07:07.202Z,12.80
2023-04-19T09:11:21.582Z,11.60
2023-04-19T09:13:24.228Z,11.20
2023-04-19T09:15:36.417Z,10.90
2023-04-19T09:17:41.062Z,10.67
2023-04-19T09:19:46.520Z,11.80
2023-04-19T09:21:48.198Z,7.57
2023-04-19T09:23:49.776Z,10.97
2023-04-19T09:28:09.261Z,11.47
2023-04-19T09:30:20.766Z,9.87
2023-04-19T09:32:24.464Z,9.50
2023-04-19T09:34:26.266Z,11.17
2023-04-19T09:36:29.187Z,11.17
2023-04-19T09:38:30.944Z,12.10
2023-04-19T09:40:32.520Z,8.70
2023-04-19T09:43:05.472Z,11.80
2023-04-19T09:47:22.768Z,11.83
2023-04-19T09:49:37.534Z,12.60
2023-04-19T09:51:48.794Z,10.67
2023-04-19T09:53:50.575Z,12.60
2023-04-19T09:56:01.514Z,14.07
2023-04-19T09:58:04.078Z,11.57
2023-04-19T10:00:06.974Z,9.00
2023-04-19T10:02:12.109Z,7.50
2023-04-19T10:08:28.709Z,7.67
2023-04-19T10:10:42.118Z,10.20
2023-04-19T10:13:11.043Z,9.50
2023-04-19T10:15:13.389Z,13.20
2023-04-19T10:17:16.165Z,7.30
2023-04-19T10:19:19.039Z,7.10
2023-04-19T10:21:21.266Z,8.03
2023-04-19T10:23:24.861Z,11.77
2023-04-19T10:25:29.542Z,11.63
2023-04-19T10:27:34.810Z,6.40
2023-04-19T10:29:55.884Z,10.37
2023-04-19T10:31:58.566Z,10.17
2023-04-19T10:34:00.291Z,13.90
2023-04-19T10:36:02.381Z,8.73
2023-04-19T10:38:06.621Z,8.60
2023-04-19T10:40:10.388Z,11.00
2023-04-19T10:42:11.910Z,7.40
2023-04-19T10:44:13.897Z,10.13
2023-04-19T10:46:35.894Z,10.17
2023-04-19T10:48:49.673Z,10.77
2023-04-19T10:51:01.493Z,11.80
2023-04-19T10:53:36.271Z,9.33
2023-04-19T10:55:50.237Z,10.97
2023-04-19T10:58:01.618Z,11.83
2023-04-19T11:00:19.538Z,10.23
2023-04-19T11:02:28.487Z,10.17
2023-04-19T11:05:09.700Z,12.33
2023-04-19T11:07:11.281Z,11.13
2023-04-19T11:09:22.198Z,10.63
2023-04-19T11:11:26.062Z,10.43
2023-04-19T11:13:27.793Z,11.10
2023-04-19T11:15:31.891Z,11.47
2023-04-19T11:17:33.818Z,11.13
2023-04-19T11:19:35.538Z,10.47
2023-04-19T11:21:40.308Z,9.73
2023-04-19T11:23:41.854Z,9.50
2023-04-19T11:25:46.021Z,10.00
2023-04-19T11:27:51.417Z,10.50
2023-04-19T11:29:54.108Z,10.33
2023-04-19T11:31:55.724Z,9.57
2023-04-19T11:33:58.824Z,9.00
2023-04-19T11:36:00.410Z,9.27
2023-04-19T11:38:03.038Z,9.00
2023-04-19T11:40:06.902Z,9.30
2023-04-19T11:42:17.345Z,10.97
2023-04-19T11:44:20.513Z,9.47
2023-04-19T11:46:23.526Z,11.63
2023-04-19T11:48:25.060Z,9.57
2023-04-19T11:50:34.842Z,9.73
2023-04-19T11:52:36.394Z,8.90
2023-04-19T11:54:38.035Z,10.90
2023-04-19T11:57:01.302Z,7.70
2023-04-19T11:59:02.888Z,7.30
2023-04-19T12:01:08.552Z,7.23
2023-04-19T12:03:10.442Z,7.13
2023-04-19T12:05:14.457Z,7.87
2023-04-19T12:07:16.437Z,9.33
2023-04-19T12:09:22.841Z,7.17
2023-04-19T12:11:41.388Z,6.63
2023-04-19T12:13:42.994Z,8.43
2023-04-19T12:15:46.199Z,7.00
2023-04-19T12:17:59.775Z,8.70
2023-04-19T12:20:01.389Z,6.87
2023-04-19T12:22:11.114Z,7.13
2023-04-19T12:24:15.853Z,6.70
2023-04-19T12:26:17.395Z,6.10
2023-04-19T12:28:18.971Z,6.37
2023-04-19T12:30:20.530Z,6.33
2023-04-19T12:32:22.266Z,7.10
2023-04-19T12:34:25.479Z,7.70
2023-04-19T12:36:27.284Z,6.47
2023-04-19T12:38:28.861Z,5.90
2023-04-19T12:40:30.716Z,8.77
2023-04-19T12:42:32.305Z,7.13
2023-04-19T12:44:33.856Z,6.83
2023-04-19T12:46:35.926Z,6.07
2023-04-19T12:48:37.518Z,5.80
2023-04-19T12:50:40.448Z,7.07
2023-04-19T12:52:42.654Z,9.17
2023-04-19T12:54:44.235Z,5.40
2023-04-19T12:56:45.808Z,6.50
2023-04-19T12:58:47.412Z,5.83
2023-04-19T13:00:49.792Z,6.30
2023-04-19T13:02:51.520Z,6.80
2023-04-19T13:04:53.402Z,5.90
2023-04-19T13:06:56.545Z,6.10
2023-04-19T13:09:01.205Z,6.17
2023-04-19T13:11:03.382Z,6.70
2023-04-19T13:13:04.997Z,6.23
2023-04-19T13:15:08.022Z,7.43
2023-04-19T13:17:09.689Z,5.40
2023-04-19T13:19:11.394Z,5.60
2023-04-19T13:21:13.005Z,7.23
2023-04-19T13:23:15.950Z,9.37
2023-04-19T13:25:17.524Z,6.97
2023-04-19T13:27:19.090Z,7.13
2023-04-19T13:29:20.700Z,6.70
2023-04-19T13:31:22.317Z,6.50
2023-04-19T13:33:23.870Z,6.20
2023-04-19T13:35:25.562Z,7.47
2023-04-19T13:37:27.159Z,6.13
2023-04-19T13:39:30.149Z,5.33
2023-04-19T13:41:31.766Z,5.80
2023-04-19T13:43:33.290Z,9.10
2023-04-19T13:45:34.847Z,7.40
2023-04-19T13:47:36.454Z,5.70
2023-04-19T13:49:38.388Z,5.97
2023-04-19T13:51:49.700Z,5.53
2023-04-19T13:53:52.137Z,7.67
2023-04-19T13:55:55.816Z,5.30
2023-04-19T13:57:57.383Z,6.90
2023-04-19T13:59:58.957Z,9.00
2023-04-19T14:02:02.908Z,5.53
2023-04-19T14:04:05.110Z,7.83
2023-04-19T14:06:07.167Z,5.93
2023-04-19T14:08:08.809Z,5.07
2023-04-19T14:10:10.969Z,5.10
2023-04-19T14:12:13.991Z,5.80
2023-04-19T14:14:15.815Z,5.33
2023-04-19T14:16:17.489Z,5.20
2023-04-19T14:18:19.160Z,5.77
2023-04-19T14:20:20.833Z,7.33
2023-04-19T14:22:24.489Z,5.47
2023-04-19T14:24:26.087Z,5.17
2023-04-19T14:26:27.834Z,5.53
2023-04-19T14:28:30.833Z,4.63
2023-04-19T14:30:32.502Z,4.60
2023-04-19T14:32:34.259Z,5.27
2023-04-19T14:34:38.144Z,4.33
2023-04-19T14:36:40.350Z,4.77
2023-04-19T14:38:41.878Z,3.73
2023-04-19T14:40:43.542Z,3.73
2023-04-19T14:42:45.113Z,5.37
2023-04-19T14:44:49.695Z,5.60
2023-04-19T14:46:51.574Z,4.83
2023-04-19T14:48:53.146Z,6.50
2023-04-19T14:50:55.646Z,9.90
2023-04-19T14:52:57.232Z,4.40
2023-04-19T14:54:58.826Z,13.57
2023-04-19T14:57:00.531Z,3.93
2023-04-19T14:59:02.086Z,7.53
2023-04-19T15:01:12.284Z,4.53
2023-04-19T15:03:14.059Z,7.93
2023-04-19T15:05:15.864Z,4.93
2023-04-19T15:07:17.649Z,7.00
2023-04-19T15:09:19.227Z,3.83
2023-04-19T15:11:20.867Z,4.70
2023-04-19T15:13:22.644Z,5.80
2023-04-19T15:15:24.262Z,6.67
2023-04-19T15:17:27.308Z,4.93
2023-04-19T15:19:30.544Z,7.03
2023-04-19T15:21:32.080Z,3.47
2023-04-19T15:23:33.651Z,3.00
2023-04-19T15:25:35.291Z,4.93
2023-04-19T15:27:37.276Z,3.13
2023-04-19T15:29:38.823Z,4.80
2023-04-19T15:31:40.419Z,5.13
2023-04-19T15:33:43.765Z,4.17
2023-04-19T15:35:45.276Z,3.10
2023-04-19T15:37:47.398Z,4.50
2023-04-19T15:39:48.980Z,4.63
2023-04-19T15:41:50.814Z,3.43
2023-04-19T15:43:52.808Z,3.23
2023-04-19T15:45:54.508Z,5.53
2023-04-19T15:47:56.082Z,4.20
2023-04-19T15:50:00.008Z,5.17
2023-04-19T15:52:01.579Z,7.87
2023-04-19T15:54:03.200Z,4.30
2023-04-19T15:56:05.924Z,4.53
2023-04-19T15:58:07.505Z,2.93
2023-04-19T16:00:10.177Z,3.73
2023-04-19T16:02:11.865Z,3.97
2023-04-19T16:04:13.904Z,3.17
2023-04-19T16:06:17.114Z,4.87
2023-04-19T16:08:19.263Z,4.73
2023-04-19T16:10:20.810Z,4.60
2023-04-19T16:12:22.402Z,4.50
2023-04-19T16:14:24.171Z,2.53
2023-04-19T16:16:25.784Z,3.77
2023-04-19T16:18:27.424Z,5.43
2023-04-19T16:20:29.069Z,4.47
2023-04-19T16:22:32.070Z,7.00
2023-04-19T16:24:33.634Z,2.70
2023-04-19T16:26:35.217Z,3.67
2023-04-19T16:28:36.769Z,3.97
2023-04-19T16:30:38.325Z,3.87
2023-04-19T16:32:40.681Z,6.03
2023-04-19T16:34:42.641Z,3.40
2023-04-19T16:36:44.218Z,3.20
2023-04-19T16:38:47.252Z,4.30
2023-04-19T16:40:49.107Z,4.27
2023-04-19T16:42:50.779Z,4.70
2023-04-19T16:44:52.503Z,3.33
2023-04-19T16:46:54.074Z,3.97
2023-04-19T16:48:55.833Z,3.50
2023-04-19T16:50:57.456Z,2.57
2023-04-19T16:52:58.996Z,4.70
2023-04-19T16:55:02.042Z,4.23
2023-04-19T16:57:03.898Z,6.73
2023-04-19T16:59:05.451Z,3.17
2023-04-19T17:01:07.029Z,3.77
2023-04-19T17:03:08.749Z,2.83
2023-04-19T17:05:10.562Z,3.33
2023-04-19T17:07:12.437Z,3.23
2023-04-19T17:09:14.176Z,3.13
2023-04-19T17:11:17.175Z,3.70
2023-04-19T17:13:18.769Z,4.20
2023-04-19T17:15:20.391Z,3.43
2023-04-19T17:17:21.954Z,4.20
2023-04-19T17:19:23.496Z,5.23
2023-04-19T17:21:25.080Z,3.27
2023-04-19T17:23:26.673Z,4.47
2023-04-19T17:25:28.416Z,3.80
2023-04-19T17:27:31.391Z,7.40
2023-04-19T17:29:33.177Z,3.27
2023-04-19T17:31:34.831Z,4.50
2023-04-19T17:33:36.534Z,7.00
2023-04-19T17:35:38.100Z,5.20
2023-04-19T17:37:39.670Z,4.33
2023-04-19T17:39:41.276Z,4.47
2023-04-19T17:41:42.840Z,3.20
2023-04-19T17:43:46.587Z,4.80
2023-04-19T17:45:48.224Z,3.73
2023-04-19T17:47:49.835Z,4.40
2023-04-19T17:49:51.605Z,5.67
2023-04-19T17:51:54.889Z,3.57
2023-04-19T17:53:56.513Z,3.07
2023-04-19T17:55:58.134Z,3.80
2023-04-19T17:57:59.742Z,4.30
2023-04-19T18:00:03.209Z,3.30
2023-04-19T18:02:04.879Z,3.70
2023-04-19T18:04:06.721Z,6.00
2023-04-19T18:06:08.724Z,5.67
2023-04-19T18:08:10.314Z,6.50
2023-04-19T18:10:11.987Z,3.57
2023-04-19T18:12:13.589Z,3.70
2023-04-19T18:14:15.117Z,4.13
2023-04-19T18:16:18.040Z,3.50
2023-04-19T18:18:19.626Z,6.30
2023-04-19T18:20:21.430Z,4.23
2023-04-19T18:22:23.059Z,5.13
2023-04-19T18:24:24.749Z,5.20
2023-04-19T18:26:36.269Z,5.50
2023-04-19T18:28:38.910Z,4.40
2023-04-19T18:30:40.561Z,4.13
2023-04-19T18:32:43.482Z,4.33
2023-04-19T18:34:45.194Z,4.47
2023-04-19T18:36:46.774Z,3.93
2023-04-19T18:38:48.290Z,7.03
2023-04-19T18:40:50.323Z,4.60
2023-04-19T18:42:51.933Z,7.87
2023-04-19T18:44:54.600Z,8.67
2023-04-19T18:46:56.497Z,5.53
2023-04-19T18:48:59.454Z,6.93
2023-04-19T18:51:01.043Z,6.53
2023-04-19T18:53:02.592Z,10.90
2023-04-19T18:55:05.010Z,6.97
2023-04-19T18:57:22.778Z,7.37
2023-04-19T18:59:25.038Z,4.70
2023-04-19T19:01:26.621Z,5.73
2023-04-19T19:05:34.041Z,5.30
2023-04-19T19:07:37.079Z,6.80
2023-04-19T19:09:39.258Z,4.77
2023-04-19T19:11:55.229Z,4.53
2023-04-19T19:13:57.946Z,6.10
2023-04-19T19:15:59.611Z,4.70
2023-04-19T19:18:01.341Z,4.67
2023-04-19T19:20:03.380Z,4.80
2023-04-19T19:22:18.192Z,4.43
2023-04-19T19:24:27.239Z,4.30
2023-04-19T19:26:28.769Z,3.90
2023-04-19T19:28:30.450Z,4.10
2023-04-19T19:30:32.041Z,10.97
2023-04-19T19:32:33.838Z,6.73
2023-04-19T19:34:47.098Z,7.47
2023-04-19T19:36:55.899Z,7.57
2023-04-19T19:38:58.830Z,14.47
2023-04-19T19:41:41.739Z,7.27
2023-04-19T19:43:21.950Z,5.40
2023-04-19T19:45:27.184Z,4.53
2023-04-19T19:47:28.872Z,12.93
2023-04-19T19:49:42.078Z,6.60
2023-04-19T19:51:58.470Z,5.00
2023-04-19T19:54:02.584Z,4.40
2023-04-19T19:56:08.658Z,7.17
2023-04-19T19:58:45.892Z,8.40
2023-04-19T20:00:46.136Z,5.37
2023-04-19T20:04:54.273Z,7.30
2023-04-19T20:09:01.867Z,7.30
2023-04-19T20:11:03.532Z,6.47
2023-04-19T20:13:05.186Z,7.47
2023-04-19T20:15:07.721Z,6.73
2023-04-19T20:17:09.223Z,4.60
2023-04-19T20:19:10.732Z,5.90
2023-04-19T20:21:12.524Z,5.60
2023-04-19T20:23:15.172Z,6.43
2023-04-19T20:25:18.119Z,6.97
2023-04-19T20:27:19.717Z,6.80
2023-04-19T20:29:21.239Z,9.33
2023-04-19T20:31:24.096Z,9.50
2023-04-19T20:33:25.974Z,6.73
2023-04-19T20:35:27.899Z,7.87
2023-04-19T20:37:29.382Z,5.38
2023-04-19T20:39:30.966Z,4.63
2023-04-19T20:41:33.949Z,5.37
2023-04-19T20:43:35.468Z,5.93
2023-04-19T20:45:37.084Z,5.83
2023-04-19T20:47:38.827Z,5.63
2023-04-19T20:49:40.503Z,5.40
2023-04-19T20:51:42.105Z,4.93
2023-04-19T20:53:43.661Z,5.50
2023-04-19T20:55:45.177Z,4.27
2023-04-19T20:57:48.247Z,4.28
2023-04-19T20:59:50.353Z,3.93
2023-04-19T21:01:51.947Z,3.93
2023-04-19T21:03:53.802Z,4.10
2023-04-19T21:05:55.555Z,4.38
2023-04-19T21:07:57.135Z,4.70
2023-04-19T21:09:58.659Z,4.50
2023-04-19T21:12:00.251Z,4.30
2023-04-19T21:14:03.195Z,4.97
2023-04-19T21:16:05.313Z,4.20
2023-04-19T21:18:06.981Z,5.53
2023-04-19T21:20:09.602Z,4.40
2023-04-19T21:22:11.204Z,4.57
2023-04-19T21:24:12.757Z,4.97
2023-04-19T21:26:14.299Z,5.30
2023-04-19T21:28:15.919Z,4.60
2023-04-19T21:30:19.290Z,5.10
2023-04-19T21:32:21.614Z,4.30
2023-04-19T21:34:23.178Z,4.30
2023-04-19T21:36:24.703Z,4.90
2023-04-19T21:38:26.308Z,4.20
2023-04-19T21:40:27.932Z,11.20
2023-04-19T21:42:29.623Z,6.47
2023-04-19T21:44:31.185Z,5.43
2023-04-19T21:46:34.235Z,5.67
2023-04-19T21:48:35.805Z,9.57
2023-04-19T21:50:37.492Z,5.30
2023-04-19T21:52:39.098Z,5.60
2023-04-19T21:54:40.650Z,4.78
2023-04-19T21:56:42.144Z,5.03
2023-04-19T21:58:43.731Z,4.97
2023-04-19T22:00:45.631Z,6.18
2023-04-19T22:02:48.658Z,5.80
2023-04-19T22:04:50.280Z,7.43
2023-04-19T22:06:51.896Z,5.60
2023-04-19T22:08:53.428Z,5.57
2023-04-19T22:10:55.829Z,5.57
2023-04-19T22:12:58.873Z,5.10
2023-04-19T22:15:00.974Z,5.90
2023-04-19T22:17:02.929Z,7.33
2023-04-19T22:19:05.962Z,6.30
2023-04-19T22:21:07.580Z,4.97
2023-04-19T22:23:09.232Z,7.20
2023-04-19T22:25:10.853Z,6.77
2023-04-19T22:27:12.497Z,4.97
2023-04-19T22:29:14.069Z,6.60
2023-04-19T22:31:15.630Z,5.05
2023-04-19T22:33:17.122Z,5.67
2023-04-19T22:35:21.995Z,5.80
2023-04-19T22:37:24.601Z,8.53
2023-04-19T22:39:26.105Z,8.37
2023-04-19T22:41:27.683Z,7.83
2023-04-19T22:43:29.201Z,6.35
2023-04-19T22:45:30.774Z,6.65
2023-04-19T22:47:32.387Z,5.27
2023-04-19T22:49:36.665Z,4.70
2023-04-19T22:51:39.639Z,4.87
2023-04-19T22:53:41.213Z,5.68
2023-04-19T22:55:42.988Z,4.43
2023-04-19T22:57:44.612Z,4.70
2023-04-19T22:59:46.251Z,8.25
2023-04-19T23:01:47.898Z,4.05
2023-04-19T23:03:49.563Z,4.97
2023-04-19T23:05:51.110Z,4.95
2023-04-19T23:07:54.813Z,8.63
2023-04-19T23:09:56.434Z,5.22
2023-04-19T23:11:57.995Z,5.60
2023-04-19T23:13:59.511Z,5.30
2023-04-19T23:16:01.116Z,4.75
2023-04-19T23:18:02.803Z,4.30
2023-04-19T23:20:05.466Z,4.70
2023-04-19T23:22:07.068Z,5.40
2023-04-19T23:24:10.113Z,5.60
2023-04-19T23:26:11.695Z,7.13
2023-04-19T23:28:13.279Z,4.77
2023-04-19T23:30:17.696Z,5.77
2023-04-19T23:32:19.339Z,6.35
2023-04-19T23:34:20.906Z,5.45
2023-04-19T23:36:22.546Z,5.80
2023-04-19T23:38:24.179Z,4.68
2023-04-19T23:40:27.097Z,5.05
2023-04-19T23:42:28.685Z,6.60
2023-04-19T23:44:30.650Z,5.15
2023-04-19T23:46:32.293Z,6.03
2023-04-19T23:48:35.006Z,6.63
2023-04-19T23:50:36.573Z,8.10
2023-04-19T23:52:38.152Z,4.60
2023-04-19T23:54:39.743Z,5.70
2023-04-19T23:56:42.633Z,6.82
2023-04-19T23:58:44.134Z,6.63
